createdAt,value
2019-01-23T00:00:46.667Z,20.30
2019-01-23T00:01:46.655Z,17.40
2019-01-23T00:02:46.644Z,11.80
2019-01-23T00:03:46.635Z,28.00
2019-01-23T00:04:46.644Z,26.60
2019-01-23T00:05:46.607Z,28.70
2019-01-23T00:06:46.598Z,27.70
2019-01-23T00:07:46.590Z,26.60
2019-01-23T00:08:46.577Z,28.30
2019-01-23T00:09:46.591Z,23.50
2019-01-23T00:10:46.556Z,18.10
2019-01-23T00:11:46.545Z,28.40
2019-01-23T00:12:46.536Z,29.70
2019-01-23T00:13:46.528Z,32.80
2019-01-23T00:14:46.534Z,23.80
2019-01-23T00:15:46.501Z,22.20
2019-01-23T00:16:46.486Z,22.10
2019-01-23T00:17:46.475Z,27.70
2019-01-23T00:18:46.468Z,30.30
2019-01-23T00:19:46.460Z,32.60
2019-01-23T00:20:46.470Z,28.90
2019-01-23T00:21:46.435Z,19.90
2019-01-23T00:22:46.428Z,27.60
2019-01-23T00:23:46.412Z,34.20
2019-01-23T00:24:46.410Z,32.40
2019-01-23T00:25:47.356Z,29.00
2019-01-23T00:26:46.382Z,26.30
2019-01-23T00:27:46.374Z,28.40
2019-01-23T00:28:46.358Z,30.50
2019-01-23T00:29:46.346Z,28.80
2019-01-23T00:30:46.365Z,28.10
2019-01-23T00:31:46.334Z,29.90
2019-01-23T00:32:46.321Z,27.80
2019-01-23T00:33:46.306Z,27.30
2019-01-23T00:34:46.293Z,26.80
2019-01-23T00:35:46.310Z,32.60
2019-01-23T00:36:46.273Z,31.30
2019-01-23T00:37:46.258Z,38.00
2019-01-23T00:38:46.255Z,24.80
2019-01-23T00:39:46.246Z,17.70
2019-01-23T00:40:46.255Z,23.60
2019-01-23T00:41:46.217Z,29.20
2019-01-23T00:42:46.210Z,30.20
2019-01-23T00:43:46.212Z,34.30
2019-01-23T00:44:46.188Z,32.10
2019-01-23T00:45:46.203Z,35.50
2019-01-23T00:46:46.162Z,30.70
2019-01-23T00:47:46.150Z,31.40
2019-01-23T00:48:46.148Z,14.10
2019-01-23T00:49:46.135Z,32.40
2019-01-23T00:50:46.146Z,32.50
2019-01-23T00:51:46.116Z,15.90
2019-01-23T00:52:46.095Z,33.30
2019-01-23T00:53:46.085Z,38.90
2019-01-23T00:54:46.293Z,40.90
2019-01-23T00:55:46.099Z,36.80
2019-01-23T00:56:46.053Z,33.10
2019-01-23T00:57:46.052Z,31.00
2019-01-23T00:58:49.315Z,33.00
2019-01-23T00:59:46.022Z,35.70
2019-01-23T01:00:46.031Z,32.30
2019-01-23T01:01:45.996Z,29.40
2019-01-23T01:02:45.983Z,32.90
2019-01-23T01:03:45.973Z,34.00
2019-01-23T01:04:45.959Z,34.20
2019-01-23T01:05:45.986Z,31.20
2019-01-23T01:06:45.940Z,32.60
2019-01-23T01:07:45.928Z,37.60
2019-01-23T01:08:45.918Z,32.90
2019-01-23T01:09:45.903Z,34.50
2019-01-23T01:10:45.923Z,35.80
2019-01-23T01:11:45.888Z,32.50
2019-01-23T01:12:45.871Z,36.30
2019-01-23T01:13:45.858Z,36.00
2019-01-23T01:14:45.849Z,37.40
2019-01-23T01:15:45.874Z,33.60
2019-01-23T01:16:45.825Z,35.50
2019-01-23T01:17:45.818Z,38.40
2019-01-23T01:18:45.813Z,35.90
2019-01-23T01:19:45.793Z,35.00
2019-01-23T01:20:45.803Z,37.00
2019-01-23T01:21:45.765Z,39.20
2019-01-23T01:22:45.758Z,32.50
2019-01-23T01:23:45.747Z,37.50
2019-01-23T01:24:45.740Z,38.60
2019-01-23T01:25:45.753Z,35.80
2019-01-23T01:26:45.708Z,36.70
2019-01-23T01:27:45.698Z,35.90
2019-01-23T01:28:45.689Z,40.80
2019-01-23T01:29:45.671Z,45.00
2019-01-23T01:30:45.693Z,41.50
2019-01-23T01:31:45.650Z,45.50
2019-01-23T01:32:45.641Z,42.40
2019-01-23T01:33:45.629Z,43.40
2019-01-23T01:34:45.623Z,41.00
2019-01-23T01:35:45.657Z,47.30
2019-01-23T01:36:45.598Z,50.70
2019-01-23T01:37:45.579Z,45.20
2019-01-23T01:38:45.566Z,67.50
2019-01-23T01:39:45.560Z,45.40
2019-01-23T01:40:45.582Z,74.60
2019-01-23T01:41:45.564Z,54.60
2019-01-23T01:42:45.525Z,75.70
2019-01-23T01:43:45.506Z,70.10
2019-01-23T01:44:45.500Z,94.10
2019-01-23T01:45:45.513Z,64.10
2019-01-23T01:46:45.479Z,70.40
2019-01-23T01:47:45.466Z,66.50
2019-01-23T01:48:45.452Z,58.50
2019-01-23T01:49:56.473Z,81.40
2019-01-23T01:50:45.467Z,81.70
2019-01-23T01:51:45.422Z,90.80
2019-01-23T01:52:45.404Z,69.50
2019-01-23T01:53:45.397Z,55.20
2019-01-23T01:54:45.488Z,71.30
2019-01-23T01:55:45.397Z,62.40
2019-01-23T01:56:45.357Z,55.70
2019-01-23T01:57:45.348Z,55.90
2019-01-23T01:58:45.338Z,48.50
2019-01-23T01:59:45.325Z,49.40
2019-01-23T02:00:45.347Z,44.50
2019-01-23T02:01:45.299Z,42.80
2019-01-23T02:02:45.287Z,42.20
2019-01-23T02:03:45.279Z,48.10
2019-01-23T02:04:45.264Z,40.50
2019-01-23T02:05:45.279Z,42.40
2019-01-23T02:06:45.239Z,46.40
2019-01-23T02:07:45.226Z,38.30
2019-01-23T02:08:45.216Z,39.40
2019-01-23T02:09:45.592Z,42.40
2019-01-23T02:10:45.218Z,43.40
2019-01-23T02:11:45.179Z,44.90
2019-01-23T02:12:45.169Z,38.90
2019-01-23T02:13:45.155Z,36.90
2019-01-23T02:14:45.142Z,41.50
2019-01-23T02:15:45.155Z,41.00
2019-01-23T02:16:45.126Z,44.80
2019-01-23T02:17:45.106Z,40.70
2019-01-23T02:18:45.102Z,35.40
2019-01-23T02:19:45.087Z,42.50
2019-01-23T02:20:45.092Z,35.70
2019-01-23T02:21:45.057Z,39.80
2019-01-23T02:22:45.049Z,34.10
2019-01-23T02:23:45.032Z,40.70
2019-01-23T02:24:45.022Z,39.40
2019-01-23T02:25:45.037Z,33.80
2019-01-23T02:26:44.995Z,40.20
2019-01-23T02:27:44.981Z,35.80
2019-01-23T02:28:44.972Z,38.40
2019-01-23T02:29:44.960Z,41.60
2019-01-23T02:30:44.975Z,45.40
2019-01-23T02:31:44.967Z,41.60
2019-01-23T02:32:44.923Z,42.70
2019-01-23T02:33:44.911Z,38.90
2019-01-23T02:34:44.900Z,39.70
2019-01-23T02:35:44.887Z,41.80
2019-01-23T02:36:44.903Z,40.00
2019-01-23T02:37:44.864Z,38.10
2019-01-23T02:38:44.855Z,38.00
2019-01-23T02:39:44.839Z,37.80
2019-01-23T02:40:44.854Z,33.80
2019-01-23T02:41:44.815Z,39.40
2019-01-23T02:42:44.802Z,33.40
2019-01-23T02:43:44.790Z,36.90
2019-01-23T02:44:44.778Z,32.70
2019-01-23T02:45:44.799Z,32.20
2019-01-23T02:46:44.754Z,27.90
2019-01-23T02:47:44.740Z,40.00
2019-01-23T02:48:44.729Z,40.00
2019-01-23T02:49:44.715Z,39.80
2019-01-23T02:50:44.737Z,43.60
2019-01-23T02:51:44.719Z,28.10
2019-01-23T02:52:44.680Z,37.20
2019-01-23T02:53:44.668Z,39.60
2019-01-23T02:54:44.654Z,35.70
2019-01-23T02:55:44.643Z,31.10
2019-01-23T02:56:44.664Z,41.10
2019-01-23T02:57:44.639Z,44.70
2019-01-23T02:58:44.623Z,39.80
2019-01-23T02:59:44.598Z,37.90
2019-01-23T03:00:44.586Z,38.00
2019-01-23T03:01:44.605Z,39.80
2019-01-23T03:02:44.562Z,40.50
2019-01-23T03:03:44.546Z,38.90
2019-01-23T03:04:44.536Z,36.80
2019-01-23T03:05:44.553Z,41.60
2019-01-23T03:06:44.509Z,37.70
2019-01-23T03:07:44.497Z,34.40
2019-01-23T03:08:44.485Z,42.30
2019-01-23T03:09:44.477Z,36.30
2019-01-23T03:10:44.494Z,36.90
2019-01-23T03:11:44.450Z,44.40
2019-01-23T03:12:44.459Z,36.30
2019-01-23T03:13:44.424Z,37.40
2019-01-23T03:14:44.416Z,38.20
2019-01-23T03:15:44.401Z,39.20
2019-01-23T03:16:44.419Z,34.40
2019-01-23T03:17:44.376Z,35.80
2019-01-23T03:18:44.369Z,37.00
2019-01-23T03:19:44.355Z,40.90
2019-01-23T03:20:44.373Z,41.30
2019-01-23T03:21:44.330Z,42.10
2019-01-23T03:22:44.346Z,35.20
2019-01-23T03:23:44.306Z,35.80
2019-01-23T03:24:44.291Z,34.70
2019-01-23T03:25:44.282Z,43.10
2019-01-23T03:26:44.299Z,37.40
2019-01-23T03:27:44.256Z,42.70
2019-01-23T03:28:44.243Z,42.30
2019-01-23T03:29:44.235Z,40.10
2019-01-23T03:30:44.230Z,37.00
2019-01-23T03:31:44.246Z,39.80
2019-01-23T03:32:44.211Z,41.20
2019-01-23T03:33:44.186Z,33.70
2019-01-23T03:34:44.244Z,34.40
2019-01-23T03:35:44.157Z,32.30
2019-01-23T03:36:44.173Z,39.50
2019-01-23T03:37:44.138Z,35.80
2019-01-23T03:38:44.120Z,40.10
2019-01-23T03:39:44.120Z,39.40
2019-01-23T03:40:44.098Z,36.30
2019-01-23T03:41:44.118Z,42.50
2019-01-23T03:42:44.076Z,38.50
2019-01-23T03:43:44.059Z,38.60
2019-01-23T03:44:44.092Z,41.80
2019-01-23T03:45:44.041Z,40.80
2019-01-23T03:46:44.055Z,44.60
2019-01-23T03:47:44.014Z,34.20
2019-01-23T03:48:44.005Z,37.00
2019-01-23T03:49:43.986Z,36.90
2019-01-23T03:50:43.980Z,40.00
2019-01-23T03:51:43.998Z,41.30
2019-01-23T03:52:43.950Z,38.60
2019-01-23T03:53:43.942Z,37.20
2019-01-23T03:54:43.931Z,39.70
2019-01-23T03:55:43.919Z,38.40
2019-01-23T03:56:43.931Z,37.60
2019-01-23T03:57:43.892Z,39.20
2019-01-23T03:58:43.877Z,41.50
2019-01-23T03:59:43.865Z,40.90
2019-01-23T04:00:43.854Z,42.30
2019-01-23T04:01:43.870Z,41.00
2019-01-23T04:02:43.828Z,47.10
2019-01-23T04:03:43.815Z,43.00
2019-01-23T04:04:43.804Z,40.60
2019-01-23T04:05:43.793Z,44.00
2019-01-23T04:06:43.810Z,44.60
2019-01-23T04:07:43.791Z,43.10
2019-01-23T04:08:43.756Z,39.30
2019-01-23T04:09:43.747Z,37.20
2019-01-23T04:10:43.733Z,37.20
2019-01-23T04:11:43.719Z,38.60
2019-01-23T04:12:43.737Z,42.40
2019-01-23T04:13:43.697Z,36.00
2019-01-23T04:14:43.683Z,41.50
2019-01-23T04:15:43.667Z,33.60
2019-01-23T04:16:43.655Z,40.50
2019-01-23T04:17:43.672Z,35.20
2019-01-23T04:18:43.633Z,36.00
2019-01-23T04:19:43.621Z,37.40
2019-01-23T04:20:43.612Z,37.90
2019-01-23T04:21:43.598Z,37.80
2019-01-23T04:22:43.610Z,38.60
2019-01-23T04:23:43.582Z,37.50
2019-01-23T04:24:43.560Z,39.70
2019-01-23T04:25:43.548Z,39.50
2019-01-23T04:26:43.542Z,41.30
2019-01-23T04:27:43.553Z,34.20
2019-01-23T04:28:43.510Z,46.80
2019-01-23T04:29:43.496Z,90.40
2019-01-23T04:30:43.492Z,58.90
2019-01-23T04:31:43.474Z,44.40
2019-01-23T04:32:43.490Z,49.50
2019-01-23T04:33:43.452Z,43.20
2019-01-23T04:34:43.435Z,40.60
2019-01-23T04:35:43.422Z,47.40
2019-01-23T04:36:43.416Z,39.60
2019-01-23T04:37:43.423Z,39.00
2019-01-23T04:38:43.390Z,43.50
2019-01-23T04:39:43.374Z,40.90
2019-01-23T04:40:43.363Z,38.00
2019-01-23T04:41:43.350Z,35.50
2019-01-23T04:42:43.365Z,38.60
2019-01-23T04:43:43.322Z,37.90
2019-01-23T04:44:43.311Z,33.50
2019-01-23T04:45:43.311Z,36.10
2019-01-23T04:46:43.285Z,36.60
2019-01-23T04:47:43.303Z,37.20
2019-01-23T04:48:43.263Z,36.80
2019-01-23T04:49:43.252Z,37.70
2019-01-23T04:50:43.239Z,36.70
2019-01-23T04:51:43.230Z,33.50
2019-01-23T04:52:43.245Z,38.30
2019-01-23T04:53:43.204Z,35.50
2019-01-23T04:54:43.188Z,39.10
2019-01-23T04:55:43.178Z,34.60
2019-01-23T04:56:43.164Z,39.00
2019-01-23T04:57:43.180Z,40.40
2019-01-23T04:58:43.179Z,35.10
2019-01-23T04:59:46.962Z,35.20
2019-01-23T05:00:43.115Z,37.20
2019-01-23T05:01:43.113Z,43.90
2019-01-23T05:02:43.096Z,43.90
2019-01-23T05:03:43.105Z,33.40
2019-01-23T05:04:43.067Z,32.70
2019-01-23T05:05:43.056Z,35.30
2019-01-23T05:06:43.048Z,42.60
2019-01-23T05:07:43.058Z,50.60
2019-01-23T05:08:43.043Z,46.10
2019-01-23T05:09:43.003Z,48.50
2019-01-23T05:10:42.989Z,52.90
2019-01-23T05:11:42.986Z,49.30
2019-01-23T05:12:42.996Z,40.30
2019-01-23T05:13:42.955Z,33.80
2019-01-23T05:14:42.944Z,37.90
2019-01-23T05:15:42.935Z,33.80
2019-01-23T05:16:42.917Z,36.70
2019-01-23T05:17:42.940Z,36.50
2019-01-23T05:18:42.893Z,33.30
2019-01-23T05:19:42.908Z,38.50
2019-01-23T05:20:42.871Z,37.80
2019-01-23T05:21:42.864Z,35.80
2019-01-23T05:22:42.848Z,35.70
2019-01-23T05:23:42.856Z,37.60
2019-01-23T05:24:42.821Z,39.40
2019-01-23T05:25:42.806Z,41.80
2019-01-23T05:26:42.796Z,38.30
2019-01-23T05:27:42.783Z,40.00
2019-01-23T05:28:42.795Z,39.40
2019-01-23T05:29:42.764Z,39.00
2019-01-23T05:30:42.745Z,38.50
2019-01-23T05:31:42.735Z,44.00
2019-01-23T05:32:42.723Z,62.50
2019-01-23T05:33:42.738Z,53.80
2019-01-23T05:34:42.696Z,37.90
2019-01-23T05:35:42.683Z,47.10
2019-01-23T05:36:42.671Z,48.80
2019-01-23T05:37:42.662Z,49.30
2019-01-23T05:38:42.680Z,48.90
2019-01-23T05:39:42.634Z,50.40
2019-01-23T05:40:42.622Z,41.80
2019-01-23T05:41:42.608Z,49.20
2019-01-23T05:42:42.597Z,60.40
2019-01-23T05:43:42.614Z,55.30
2019-01-23T05:44:42.580Z,71.40
2019-01-23T05:45:42.562Z,53.20
2019-01-23T05:46:42.548Z,44.10
2019-01-23T05:47:42.540Z,44.70
2019-01-23T05:48:42.550Z,45.40
2019-01-23T05:49:42.515Z,51.90
2019-01-23T05:50:42.502Z,52.40
2019-01-23T05:51:42.483Z,45.20
2019-01-23T05:52:42.481Z,43.70
2019-01-23T05:53:42.499Z,42.20
2019-01-23T05:54:42.481Z,36.80
2019-01-23T05:55:42.444Z,36.80
2019-01-23T05:56:42.423Z,39.00
2019-01-23T05:57:42.410Z,36.00
2019-01-23T05:58:42.399Z,39.50
2019-01-23T05:59:42.418Z,36.20
2019-01-23T06:00:42.378Z,36.50
2019-01-23T06:01:42.365Z,39.50
2019-01-23T06:02:42.355Z,39.80
2019-01-23T06:03:42.367Z,42.20
2019-01-23T06:04:42.327Z,43.20
2019-01-23T06:05:42.313Z,41.00
2019-01-23T06:06:42.306Z,51.50
2019-01-23T06:07:42.289Z,46.20
2019-01-23T06:08:42.307Z,44.90
2019-01-23T06:09:42.288Z,44.90
2019-01-23T06:10:42.252Z,49.90
2019-01-23T06:11:42.236Z,48.90
2019-01-23T06:12:42.227Z,41.70
2019-01-23T06:13:42.220Z,46.10
2019-01-23T06:14:42.227Z,120.00
2019-01-23T06:15:42.188Z,84.10
2019-01-23T06:16:42.178Z,71.10
2019-01-23T06:17:42.169Z,56.70
2019-01-23T06:18:42.180Z,55.60
2019-01-23T06:19:42.172Z,65.50
2019-01-23T06:20:42.128Z,57.60
2019-01-23T06:21:42.120Z,40.50
2019-01-23T06:22:42.103Z,28.70
2019-01-23T06:23:42.087Z,35.40
2019-01-23T06:24:42.115Z,41.70
2019-01-23T06:25:42.065Z,58.00
2019-01-23T06:26:42.056Z,60.10
2019-01-23T06:27:42.037Z,59.50
2019-01-23T06:28:42.060Z,68.90
2019-01-23T06:29:42.015Z,61.50
2019-01-23T06:30:42.007Z,64.40
2019-01-23T06:31:41.989Z,53.70
2019-01-23T06:32:41.979Z,50.80
2019-01-23T06:33:42.008Z,43.80
2019-01-23T06:34:41.991Z,44.00
2019-01-23T06:35:41.941Z,47.30
2019-01-23T06:36:41.928Z,47.00
2019-01-23T06:37:41.917Z,45.90
2019-01-23T06:38:41.910Z,46.70
2019-01-23T06:39:41.920Z,53.50
2019-01-23T06:40:41.880Z,45.40
2019-01-23T06:41:41.868Z,60.00
2019-01-23T06:42:41.849Z,42.60
2019-01-23T06:43:41.848Z,44.40
2019-01-23T06:44:41.856Z,49.50
2019-01-23T06:45:41.817Z,52.90
2019-01-23T06:46:41.803Z,48.30
2019-01-23T06:47:41.794Z,63.60
2019-01-23T06:48:41.778Z,51.50
2019-01-23T06:49:41.798Z,56.90
2019-01-23T06:50:41.756Z,56.00
2019-01-23T06:51:41.742Z,60.80
2019-01-23T06:52:41.730Z,67.70
2019-01-23T06:53:41.718Z,64.50
2019-01-23T06:54:41.921Z,65.00
2019-01-23T06:55:41.696Z,59.10
2019-01-23T06:56:41.687Z,49.00
2019-01-23T06:57:41.670Z,56.40
2019-01-23T06:58:41.656Z,48.80
2019-01-23T06:59:41.672Z,98.00
2019-01-23T07:00:41.633Z,49.40
2019-01-23T07:01:41.622Z,48.60
2019-01-23T07:02:41.608Z,64.10
2019-01-23T07:03:41.597Z,63.00
2019-01-23T07:04:41.607Z,45.40
2019-01-23T07:05:41.574Z,38.70
2019-01-23T07:06:41.562Z,37.40
2019-01-23T07:07:41.547Z,33.90
2019-01-23T07:08:41.536Z,38.50
2019-01-23T07:09:41.546Z,37.60
2019-01-23T07:10:41.551Z,36.90
2019-01-23T07:11:41.496Z,37.40
2019-01-23T07:12:41.489Z,37.00
2019-01-23T07:13:41.477Z,38.30
2019-01-23T07:14:41.551Z,39.50
2019-01-23T07:15:41.446Z,37.50
2019-01-23T07:16:41.442Z,42.80
2019-01-23T07:17:41.426Z,38.50
2019-01-23T07:18:41.415Z,36.90
2019-01-23T07:19:41.431Z,39.90
2019-01-23T07:20:41.389Z,44.40
2019-01-23T07:21:41.382Z,49.50
2019-01-23T07:22:41.364Z,52.60
2019-01-23T07:23:41.352Z,43.80
2019-01-23T07:24:41.372Z,44.60
2019-01-23T07:25:41.354Z,40.00
2019-01-23T07:26:41.317Z,49.50
2019-01-23T07:27:41.304Z,41.50
2019-01-23T07:28:41.294Z,46.10
2019-01-23T07:29:41.288Z,46.40
2019-01-23T07:30:41.298Z,64.10
2019-01-23T07:31:41.255Z,54.40
2019-01-23T07:32:41.244Z,56.10
2019-01-23T07:33:41.232Z,51.90
2019-01-23T07:34:41.219Z,47.00
2019-01-23T07:35:41.238Z,42.80
2019-01-23T07:36:41.199Z,40.40
2019-01-23T07:37:41.186Z,35.80
2019-01-23T07:38:41.181Z,41.80
2019-01-23T07:39:41.162Z,42.50
2019-01-23T07:40:41.183Z,44.70
2019-01-23T07:41:41.198Z,43.40
2019-01-23T07:42:41.125Z,42.90
2019-01-23T07:43:41.117Z,49.40
2019-01-23T07:44:41.102Z,49.00
2019-01-23T07:45:41.122Z,41.70
2019-01-23T07:46:41.097Z,45.00
2019-01-23T07:47:41.093Z,50.60
2019-01-23T07:48:41.058Z,43.50
2019-01-23T07:49:41.044Z,43.00
2019-01-23T07:50:41.066Z,44.80
2019-01-23T07:51:41.025Z,44.50
2019-01-23T07:52:41.011Z,44.80
2019-01-23T07:53:41.004Z,43.60
2019-01-23T07:54:40.988Z,51.30
2019-01-23T07:55:41.400Z,51.50
2019-01-23T07:56:40.967Z,43.10
2019-01-23T07:57:41.730Z,43.10
2019-01-23T07:58:40.945Z,41.40
2019-01-23T07:59:40.935Z,42.90
2019-01-23T08:00:40.950Z,43.80
2019-01-23T08:01:40.916Z,49.50
2019-01-23T08:02:40.903Z,76.40
2019-01-23T08:03:40.888Z,85.70
2019-01-23T08:04:40.883Z,85.90
2019-01-23T08:05:40.899Z,101.60
2019-01-23T08:06:40.853Z,139.40
2019-01-23T08:07:40.856Z,140.30
2019-01-23T08:08:40.834Z,130.30
2019-01-23T08:09:40.826Z,110.00
2019-01-23T08:10:40.841Z,81.40
2019-01-23T08:11:40.881Z,88.10
2019-01-23T08:12:41.093Z,61.70
2019-01-23T08:13:40.848Z,89.00
2019-01-23T08:14:41.969Z,79.80
2019-01-23T08:15:40.783Z,60.10
2019-01-23T08:16:40.750Z,55.10
2019-01-23T08:17:41.231Z,55.50
2019-01-23T08:18:40.788Z,54.60
2019-01-23T08:19:41.627Z,64.10
2019-01-23T08:20:40.736Z,79.30
2019-01-23T08:21:40.698Z,69.40
2019-01-23T08:22:42.234Z,60.40
2019-01-23T08:23:40.679Z,53.00
2019-01-23T08:24:40.668Z,45.00
2019-01-23T08:25:40.693Z,41.90
2019-01-23T08:26:40.650Z,48.60
2019-01-23T08:27:41.383Z,46.90
2019-01-23T08:28:40.677Z,46.40
2019-01-23T08:29:40.622Z,44.50
2019-01-23T08:30:40.992Z,45.00
2019-01-23T08:31:40.697Z,46.40
2019-01-23T08:32:40.606Z,44.80
2019-01-23T08:33:40.584Z,44.80
2019-01-23T08:34:41.003Z,40.00
2019-01-23T08:35:40.564Z,41.00
2019-01-23T08:36:40.581Z,39.80
2019-01-23T08:37:40.548Z,43.40
2019-01-23T08:38:40.536Z,46.00
2019-01-23T08:39:40.533Z,42.60
2019-01-23T08:40:40.518Z,46.20
2019-01-23T08:41:40.538Z,44.50
2019-01-23T08:42:40.505Z,42.80
2019-01-23T08:43:40.496Z,44.20
2019-01-23T08:44:40.485Z,41.00
2019-01-23T08:45:40.487Z,38.90
2019-01-23T08:46:40.495Z,41.30
2019-01-23T08:47:40.461Z,38.30
2019-01-23T08:48:40.465Z,39.10
2019-01-23T08:49:40.444Z,40.70
2019-01-23T08:50:40.435Z,40.80
2019-01-23T08:51:40.455Z,41.40
2019-01-23T08:52:40.417Z,42.20
2019-01-23T08:53:40.414Z,37.60
2019-01-23T08:54:40.410Z,37.70
2019-01-23T08:55:40.399Z,37.40
2019-01-23T08:56:40.423Z,36.60
2019-01-23T08:57:40.382Z,36.80
2019-01-23T08:58:40.372Z,40.40
2019-01-23T08:59:40.365Z,33.90
2019-01-23T09:00:45.715Z,38.80
2019-01-23T09:01:40.376Z,39.60
2019-01-23T09:02:40.347Z,39.40
2019-01-23T09:03:40.335Z,39.90
2019-01-23T09:04:40.329Z,39.80
2019-01-23T09:05:40.359Z,41.70
2019-01-23T09:06:40.344Z,45.50
2019-01-23T09:07:40.309Z,42.60
2019-01-23T09:08:40.309Z,40.70
2019-01-23T09:09:40.301Z,42.80
2019-01-23T09:10:40.288Z,41.60
2019-01-23T09:11:40.309Z,41.50
2019-01-23T09:12:40.274Z,43.60
2019-01-23T09:13:40.265Z,46.10
2019-01-23T09:14:40.258Z,43.20
2019-01-23T09:15:40.256Z,44.20
2019-01-23T09:16:40.274Z,38.00
2019-01-23T09:17:40.245Z,41.70
2019-01-23T09:18:40.235Z,40.80
2019-01-23T09:19:40.232Z,38.80
2019-01-23T09:20:40.227Z,43.60
2019-01-23T09:21:40.246Z,42.90
2019-01-23T09:22:40.213Z,39.00
2019-01-23T09:23:40.204Z,39.90
2019-01-23T09:24:40.203Z,38.10
2019-01-23T09:25:40.199Z,40.70
2019-01-23T09:26:40.226Z,37.40
2019-01-23T09:27:40.188Z,39.40
2019-01-23T09:28:40.186Z,39.60
2019-01-23T09:29:40.181Z,32.40
2019-01-23T09:30:40.175Z,35.30
2019-01-23T09:31:40.204Z,36.40
2019-01-23T09:32:40.196Z,37.10
2019-01-23T09:33:40.167Z,36.00
2019-01-23T09:34:40.163Z,36.60
2019-01-23T09:35:40.159Z,37.70
2019-01-23T09:36:40.157Z,35.50
2019-01-23T09:37:40.180Z,36.70
2019-01-23T09:38:40.151Z,35.70
2019-01-23T09:39:40.149Z,35.90
2019-01-23T09:40:40.141Z,36.80
2019-01-23T09:41:40.142Z,41.00
2019-01-23T09:42:40.163Z,35.40
2019-01-23T09:43:40.134Z,35.70
2019-01-23T09:44:40.135Z,38.80
2019-01-23T09:45:40.126Z,39.00
2019-01-23T09:46:40.128Z,39.70
2019-01-23T09:47:40.150Z,37.60
2019-01-23T09:48:40.120Z,38.70
2019-01-23T09:49:40.122Z,38.80
2019-01-23T09:50:40.122Z,39.80
2019-01-23T09:51:40.111Z,37.40
2019-01-23T09:52:40.189Z,38.90
2019-01-23T09:53:40.112Z,38.80
2019-01-23T09:54:40.102Z,44.40
2019-01-23T09:55:40.096Z,35.60
2019-01-23T09:56:40.098Z,36.60
2019-01-23T09:57:40.119Z,37.70
2019-01-23T09:58:40.092Z,40.60
2019-01-23T09:59:40.087Z,40.10
2019-01-23T10:00:40.087Z,36.50
2019-01-23T10:01:40.091Z,37.10
2019-01-23T10:02:40.113Z,37.70
2019-01-23T10:03:40.106Z,42.70
2019-01-23T10:04:40.079Z,36.90
2019-01-23T10:05:40.081Z,39.50
2019-01-23T10:06:40.074Z,39.20
2019-01-23T10:07:40.074Z,39.60
2019-01-23T10:08:40.111Z,38.40
2019-01-23T10:09:40.075Z,39.30
2019-01-23T10:10:40.074Z,36.50
2019-01-23T10:11:40.069Z,37.20
2019-01-23T10:12:40.080Z,40.70
2019-01-23T10:13:40.098Z,39.40
2019-01-23T10:14:40.072Z,41.60
2019-01-23T10:15:40.069Z,39.30
2019-01-23T10:16:40.071Z,41.50
2019-01-23T10:17:40.073Z,41.40
2019-01-23T10:18:40.096Z,42.20
2019-01-23T10:19:40.068Z,44.60
2019-01-23T10:20:40.067Z,41.60
2019-01-23T10:21:40.073Z,40.20
2019-01-23T10:22:40.067Z,39.70
2019-01-23T10:23:40.095Z,39.20
2019-01-23T10:24:40.067Z,41.00
2019-01-23T10:25:40.072Z,37.00
2019-01-23T10:26:40.067Z,38.30
2019-01-23T10:27:40.077Z,38.40
2019-01-23T10:28:40.090Z,37.40
2019-01-23T10:29:40.072Z,37.60
2019-01-23T10:30:40.067Z,38.10
2019-01-23T10:31:40.067Z,35.00
2019-01-23T10:32:40.069Z,36.80
2019-01-23T10:33:40.094Z,42.00
2019-01-23T10:34:40.070Z,38.80
2019-01-23T10:35:40.065Z,39.70
2019-01-23T10:36:40.069Z,40.20
2019-01-23T10:37:40.070Z,36.80
2019-01-23T10:38:40.099Z,37.90
2019-01-23T10:39:40.093Z,38.90
2019-01-23T10:40:40.076Z,38.90
2019-01-23T10:41:40.069Z,38.00
2019-01-23T10:42:40.069Z,38.10
2019-01-23T10:43:40.067Z,39.30
2019-01-23T10:44:40.096Z,36.70
2019-01-23T10:45:40.079Z,37.50
2019-01-23T10:46:40.077Z,36.10
2019-01-23T10:47:40.070Z,41.00
2019-01-23T10:48:40.069Z,39.70
2019-01-23T10:49:40.101Z,38.40
2019-01-23T10:50:40.072Z,40.10
2019-01-23T10:51:40.071Z,41.70
2019-01-23T10:52:40.068Z,36.90
2019-01-23T10:53:40.072Z,39.50
2019-01-23T10:54:40.099Z,37.80
2019-01-23T10:55:40.067Z,37.80
2019-01-23T10:56:40.065Z,38.10
2019-01-23T10:57:40.066Z,38.70
2019-01-23T10:58:40.066Z,39.50
2019-01-23T10:59:40.094Z,42.10
2019-01-23T11:00:40.069Z,41.10
2019-01-23T11:01:40.064Z,38.30
2019-01-23T11:02:40.061Z,37.30
2019-01-23T11:03:40.061Z,37.90
2019-01-23T11:04:41.638Z,38.70
2019-01-23T11:05:40.058Z,36.80
2019-01-23T11:06:40.057Z,39.80
2019-01-23T11:07:40.054Z,41.80
2019-01-23T11:08:40.054Z,38.80
2019-01-23T11:09:40.079Z,40.50
2019-01-23T11:10:40.051Z,38.60
2019-01-23T11:11:40.050Z,39.40
2019-01-23T11:12:40.046Z,37.90
2019-01-23T11:13:40.071Z,39.00
2019-01-23T11:14:40.043Z,39.00
2019-01-23T11:15:40.042Z,39.00
2019-01-23T11:16:40.043Z,38.90
2019-01-23T11:17:40.042Z,39.50
2019-01-23T11:18:40.041Z,38.50
2019-01-23T11:19:40.067Z,39.40
2019-01-23T11:20:40.039Z,38.00
2019-01-23T11:21:40.037Z,42.60
2019-01-23T11:22:40.034Z,41.30
2019-01-23T11:23:40.034Z,39.20
2019-01-23T11:24:40.057Z,42.00
2019-01-23T11:25:40.031Z,43.30
2019-01-23T11:26:40.029Z,41.90
2019-01-23T11:27:40.031Z,40.60
2019-01-23T11:28:40.029Z,39.20
2019-01-23T11:29:40.063Z,40.60
2019-01-23T11:30:40.032Z,38.00
2019-01-23T11:31:40.028Z,37.30
2019-01-23T11:32:40.031Z,38.00
2019-01-23T11:33:40.027Z,35.60
2019-01-23T11:34:40.052Z,39.70
2019-01-23T11:35:40.020Z,40.10
2019-01-23T11:36:40.023Z,37.60
2019-01-23T11:37:40.017Z,37.20
2019-01-23T11:38:40.021Z,36.70
2019-01-23T11:39:40.047Z,39.10
2019-01-23T11:40:40.019Z,36.80
2019-01-23T11:41:40.022Z,40.10
2019-01-23T11:42:40.025Z,36.30
2019-01-23T11:43:40.022Z,40.20
2019-01-23T11:44:40.052Z,38.20
2019-01-23T11:45:40.017Z,33.90
2019-01-23T11:46:40.020Z,36.50
2019-01-23T11:47:40.019Z,42.90
2019-01-23T11:48:40.013Z,40.30
2019-01-23T11:49:40.045Z,39.40
2019-01-23T11:50:40.015Z,42.30
2019-01-23T11:51:40.018Z,37.90
2019-01-23T11:52:40.014Z,37.00
2019-01-23T11:53:40.012Z,40.60
2019-01-23T11:54:40.041Z,41.50
2019-01-23T11:55:40.014Z,38.70
2019-01-23T11:56:40.020Z,39.50
2019-01-23T11:57:40.017Z,36.60
2019-01-23T11:58:40.021Z,41.40
2019-01-23T11:59:40.044Z,36.50
2019-01-23T12:00:40.044Z,36.60
2019-01-23T12:01:40.013Z,35.30
2019-01-23T12:02:40.012Z,34.00
2019-01-23T12:03:40.017Z,36.60
2019-01-23T12:04:40.013Z,33.90
2019-01-23T12:05:40.039Z,33.60
2019-01-23T12:06:40.017Z,36.20
2019-01-23T12:07:40.013Z,39.20
2019-01-23T12:08:40.010Z,37.40
2019-01-23T12:09:40.011Z,40.10
2019-01-23T12:10:40.034Z,39.60
2019-01-23T12:11:40.006Z,37.80
2019-01-23T12:12:40.007Z,36.60
2019-01-23T12:13:40.003Z,38.20
2019-01-23T12:14:40.008Z,37.10
2019-01-23T12:15:40.925Z,36.00
2019-01-23T12:16:40.008Z,38.10
2019-01-23T12:17:40.001Z,40.50
2019-01-23T12:18:40.001Z,34.30
2019-01-23T12:19:40.001Z,38.50
2019-01-23T12:20:40.030Z,35.40
2019-01-23T12:21:40.002Z,37.40
2019-01-23T12:22:39.996Z,37.80
2019-01-23T12:23:40.010Z,38.80
2019-01-23T12:24:39.994Z,37.30
2019-01-23T12:25:40.020Z,36.80
2019-01-23T12:26:39.992Z,35.70
2019-01-23T12:27:40.003Z,37.60
2019-01-23T12:28:39.992Z,37.00
2019-01-23T12:29:39.992Z,33.60
2019-01-23T12:30:40.020Z,37.70
2019-01-23T12:31:39.990Z,35.20
2019-01-23T12:32:40.019Z,33.70
2019-01-23T12:33:39.989Z,37.70
2019-01-23T12:34:39.988Z,37.10
2019-01-23T12:35:40.011Z,33.40
2019-01-23T12:36:39.983Z,34.20
2019-01-23T12:37:39.981Z,38.00
2019-01-23T12:38:39.978Z,35.50
2019-01-23T12:39:39.980Z,35.60
2019-01-23T12:40:40.001Z,36.50
2019-01-23T12:41:39.975Z,36.10
2019-01-23T12:42:40.001Z,36.40
2019-01-23T12:43:39.973Z,34.30
2019-01-23T12:44:39.966Z,38.70
2019-01-23T12:45:39.981Z,39.40
2019-01-23T12:46:39.987Z,36.20
2019-01-23T12:47:39.956Z,37.20
2019-01-23T12:48:39.949Z,33.30
2019-01-23T12:49:39.949Z,36.90
2019-01-23T12:50:39.944Z,32.10
2019-01-23T12:51:39.970Z,23.10
2019-01-23T12:52:39.940Z,35.50